sensor_id;sensor_type;location;lat;lon;timestamp;temperature;humidity
21417;DHT22;10869;52.238;10.716;2023-07-31T03:03:05;15.00;99.90
21417;DHT22;10869;52.238;10.716;2023-07-31T03:05:32;15.00;99.90
21417;DHT22;10869;52.238;10.716;2023-07-31T03:07:58;15.00;99.90
21417;DHT22;10869;52.238;10.716;2023-07-31T03:10:24;15.00;99.90
21417;DHT22;10869;52.238;10.716;2023-07-31T03:12:50;15.00;99.90
21417;DHT22;10869;52.238;10.716;2023-07-31T03:15:16;15.00;99.90
21417;DHT22;10869;52.238;10.716;2023-07-31T03:17:42;15.00;99.90
21417;DHT22;10869;52.238;10.716;2023-07-31T03:20:08;15.00;99.90
21417;DHT22;10869;52.238;10.716;2023-07-31T03:22:38;15.00;99.90
21417;DHT22;10869;52.238;10.716;2023-07-31T03:25:04;15.00;99.90
21417;DHT22;10869;52.238;10.716;2023-07-31T03:27:30;14.90;99.90
21417;DHT22;10869;52.238;10.716;2023-07-31T03:29:56;15.00;99.90
21417;DHT22;10869;52.238;10.716;2023-07-31T03:32:22;15.00;99.90
21417;DHT22;10869;52.238;10.716;2023-07-31T03:34:48;15.00;99.90
21417;DHT22;10869;52.238;10.716;2023-07-31T03:37:14;15.00;99.90
21417;DHT22;10869;52.238;10.716;2023-07-31T03:39:40;15.00;99.90
21417;DHT22;10869;52.238;10.716;2023-07-31T03:42:06;15.00;99.90
21417;DHT22;10869;52.238;10.716;2023-07-31T03:44:32;15.00;99.90
21417;DHT22;10869;52.238;10.716;2023-07-31T03:46:57;15.00;99.90
21417;DHT22;10869;52.238;10.716;2023-07-31T03:49:23;15.00;99.90
21417;DHT22;10869;52.238;10.716;2023-07-31T03:51:49;15.00;99.90
21417;DHT22;10869;52.238;10.716;2023-07-31T03:54:15;15.00;99.90
21417;DHT22;10869;52.238;10.716;2023-07-31T03:56:41;15.00;99.90
21417;DHT22;10869;52.238;10.716;2023-07-31T03:59:07;15.00;99.90
21417;DHT22;10869;52.238;10.716;2023-07-31T04:01:33;15.00;99.90
21417;DHT22;10869;52.238;10.716;2023-07-31T04:03:59;15.00;99.90
21417;DHT22;10869;52.238;10.716;2023-07-31T04:06:24;15.00;99.90
21417;DHT22;10869;52.238;10.716;2023-07-31T04:08:50;15.00;99.90
21417;DHT22;10869;52.238;10.716;2023-07-31T04:11:16;15.00;99.90
21417;DHT22;10869;52.238;10.716;2023-07-31T04:13:42;15.00;99.90
21417;DHT22;10869;52.238;10.716;2023-07-31T04:16:08;15.00;99.90
21417;DHT22;10869;52.238;10.716;2023-07-31T04:18:34;15.10;99.90
21417;DHT22;10869;52.238;10.716;2023-07-31T04:20:59;15.00;99.90
21417;DHT22;10869;52.238;10.716;2023-07-31T04:23:26;15.00;99.90
21417;DHT22;10869;52.238;10.716;2023-07-31T04:25:52;15.10;99.90
21417;DHT22;10869;52.238;10.716;2023-07-31T04:28:18;15.10;99.90
21417;DHT22;10869;52.238;10.716;2023-07-31T04:30:43;15.10;99.90
21417;DHT22;10869;52.238;10.716;2023-07-31T04:33:09;15.00;99.90
21417;DHT22;10869;52.238;10.716;2023-07-31T04:35:35;15.00;99.90
21417;DHT22;10869;52.238;10.716;2023-07-31T04:38:04;15.00;99.90
21417;DHT22;10869;52.238;10.716;2023-07-31T04:40:30;15.00;99.90
21417;DHT22;10869;52.238;10.716;2023-07-31T04:42:56;15.00;99.90
21417;DHT22;10869;52.238;10.716;2023-07-31T04:45:24;15.00;99.90
21417;DHT22;10869;52.238;10.716;2023-07-31T04:47:50;15.10;99.90
21417;DHT22;10869;52.238;10.716;2023-07-31T04:50:16;15.00;99.90
21417;DHT22;10869;52.238;10.716;2023-07-31T04:52:41;15.00;99.90
21417;DHT22;10869;52.238;10.716;2023-07-31T04:55:08;15.00;99.90
21417;DHT22;10869;52.238;10.716;2023-07-31T04:57:33;15.10;99.90
21417;DHT22;10869;52.238;10.716;2023-07-31T04:59:59;15.00;99.90
21417;DHT22;10869;52.238;10.716;2023-07-31T05:02:25;15.00;99.90
21417;DHT22;10869;52.238;10.716;2023-07-31T05:04:50;15.00;99.90
21417;DHT22;10869;52.238;10.716;2023-07-31T05:07:16;14.90;99.90
21417;DHT22;10869;52.238;10.716;2023-07-31T05:09:42;14.90;99.90
21417;DHT22;10869;52.238;10.716;2023-07-31T05:15:30;14.90;99.90
21417;DHT22;10869;52.238;10.716;2023-07-31T05:21:21;14.80;99.90
21417;DHT22;10869;52.238;10.716;2023-07-31T05:23:46;14.70;99.90
21417;DHT22;10869;52.238;10.716;2023-07-31T05:26:13;14.60;99.90
21417;DHT22;10869;52.238;10.716;2023-07-31T05:32:07;14.50;99.90
21417;DHT22;10869;52.238;10.716;2023-07-31T05:34:39;14.40;99.90
21417;DHT22;10869;52.238;10.716;2023-07-31T05:37:09;14.40;99.90
21417;DHT22;10869;52.238;10.716;2023-07-31T05:39:39;14.40;99.90
21417;DHT22;10869;52.238;10.716;2023-07-31T05:42:14;14.40;99.90
21417;DHT22;10869;52.238;10.716;2023-07-31T05:44:53;14.40;99.90
21417;DHT22;10869;52.238;10.716;2023-07-31T05:47:20;14.40;99.90
21417;DHT22;10869;52.238;10.716;2023-07-31T05:53:17;14.40;99.90
21417;DHT22;10869;52.238;10.716;2023-07-31T05:55:54;14.40;99.90
21417;DHT22;10869;52.238;10.716;2023-07-31T05:58:43;14.50;99.90
21417;DHT22;10869;52.238;10.716;2023-07-31T06:01:09;14.50;99.90
21417;DHT22;10869;52.238;10.716;2023-07-31T06:03:36;14.50;99.90
21417;DHT22;10869;52.238;10.716;2023-07-31T06:06:07;14.60;99.90
21417;DHT22;10869;52.238;10.716;2023-07-31T06:12:05;14.60;99.90
21417;DHT22;10869;52.238;10.716;2023-07-31T06:17:56;14.60;99.90
21417;DHT22;10869;52.238;10.716;2023-07-31T06:20:23;14.70;99.90
21417;DHT22;10869;52.238;10.716;2023-07-31T06:23:09;14.70;99.90
21417;DHT22;10869;52.238;10.716;2023-07-31T06:25:39;14.80;99.90
21417;DHT22;10869;52.238;10.716;2023-07-31T06:28:10;14.90;99.90
21417;DHT22;10869;52.238;10.716;2023-07-31T06:30:49;15.00;99.90
21417;DHT22;10869;52.238;10.716;2023-07-31T06:37:15;15.10;99.90
21417;DHT22;10869;52.238;10.716;2023-07-31T06:43:09;15.30;99.90
21417;DHT22;10869;52.238;10.716;2023-07-31T06:51:09;15.30;99.90
21417;DHT22;10869;52.238;10.716;2023-07-31T06:53:34;15.30;99.90
21417;DHT22;10869;52.238;10.716;2023-07-31T06:59:22;15.40;99.90
21417;DHT22;10869;52.238;10.716;2023-07-31T07:01:48;15.40;99.90
21417;DHT22;10869;52.238;10.716;2023-07-31T07:04:14;15.40;99.90
21417;DHT22;10869;52.238;10.716;2023-07-31T07:06:44;15.50;99.90
21417;DHT22;10869;52.238;10.716;2023-07-31T07:38:24;15.60;99.90
21417;DHT22;10869;52.238;10.716;2023-07-31T07:40:51;15.60;99.90
21417;DHT22;10869;52.238;10.716;2023-07-31T07:43:18;15.60;99.90
21417;DHT22;10869;52.238;10.716;2023-07-31T07:45:44;15.60;99.90
21417;DHT22;10869;52.238;10.716;2023-07-31T07:48:09;15.60;99.90
21417;DHT22;10869;52.238;10.716;2023-07-31T07:50:38;15.60;99.90
21417;DHT22;10869;52.238;10.716;2023-07-31T07:53:03;15.70;99.90
21417;DHT22;10869;52.238;10.716;2023-07-31T07:55:29;15.80;99.90
21417;DHT22;10869;52.238;10.716;2023-07-31T07:57:55;15.80;99.90
21417;DHT22;10869;52.238;10.716;2023-07-31T08:00:20;15.80;99.90
21417;DHT22;10869;52.238;10.716;2023-07-31T08:02:46;15.80;99.90
21417;DHT22;10869;52.238;10.716;2023-07-31T08:08:35;15.80;99.90
21417;DHT22;10869;52.238;10.716;2023-07-31T08:11:01;15.90;99.90
21417;DHT22;10869;52.238;10.716;2023-07-31T08:16:49;15.90;99.90
21417;DHT22;10869;52.238;10.716;2023-07-31T08:19:14;15.90;99.90
21417;DHT22;10869;52.238;10.716;2023-07-31T08:21:40;15.90;99.90
21417;DHT22;10869;52.238;10.716;2023-07-31T08:24:06;15.90;99.90
21417;DHT22;10869;52.238;10.716;2023-07-31T08:26:33;15.90;99.90
21417;DHT22;10869;52.238;10.716;2023-07-31T08:32:25;16.40;99.90
21417;DHT22;10869;52.238;10.716;2023-07-31T08:34:50;16.60;99.90
21417;DHT22;10869;52.238;10.716;2023-07-31T08:37:16;16.60;99.90
21417;DHT22;10869;52.238;10.716;2023-07-31T08:39:42;16.70;99.90
21417;DHT22;10869;52.238;10.716;2023-07-31T08:42:23;16.80;99.90
21417;DHT22;10869;52.238;10.716;2023-07-31T08:44:50;16.80;99.90
21417;DHT22;10869;52.238;10.716;2023-07-31T08:47:16;16.90;99.90
21417;DHT22;10869;52.238;10.716;2023-07-31T08:49:43;16.80;99.90
21417;DHT22;10869;52.238;10.716;2023-07-31T08:52:09;16.60;99.90
21417;DHT22;10869;52.238;10.716;2023-07-31T08:54:35;16.50;99.90
21417;DHT22;10869;52.238;10.716;2023-07-31T08:57:01;16.40;99.90
21417;DHT22;10869;52.238;10.716;2023-07-31T08:59:31;16.30;99.90
21417;DHT22;10869;52.238;10.716;2023-07-31T09:02:05;16.20;99.90
21417;DHT22;10869;52.238;10.716;2023-07-31T09:04:32;16.10;99.90
21417;DHT22;10869;52.238;10.716;2023-07-31T09:07:00;16.10;99.90
21417;DHT22;10869;52.238;10.716;2023-07-31T09:09:50;16.10;99.90
21417;DHT22;10869;52.238;10.716;2023-07-31T09:12:16;16.00;99.90
21417;DHT22;10869;52.238;10.716;2023-07-31T09:14:44;16.00;99.90
21417;DHT22;10869;52.238;10.716;2023-07-31T09:17:10;16.00;99.90
21417;DHT22;10869;52.238;10.716;2023-07-31T09:19:36;16.00;99.90
21417;DHT22;10869;52.238;10.716;2023-07-31T09:22:04;16.00;99.90
21417;DHT22;10869;52.238;10.716;2023-07-31T09:24:32;16.10;99.90
21417;DHT22;10869;52.238;10.716;2023-07-31T09:27:00;16.10;99.90
21417;DHT22;10869;52.238;10.716;2023-07-31T09:29:27;16.20;99.90
21417;DHT22;10869;52.238;10.716;2023-07-31T09:35:28;16.30;99.90
21417;DHT22;10869;52.238;10.716;2023-07-31T09:38:05;16.20;99.90
21417;DHT22;10869;52.238;10.716;2023-07-31T09:40:36;16.20;99.90
21417;DHT22;10869;52.238;10.716;2023-07-31T09:43:21;16.30;99.90
21417;DHT22;10869;52.238;10.716;2023-07-31T09:45:47;16.30;99.90
21417;DHT22;10869;52.238;10.716;2023-07-31T09:48:15;16.30;99.90
21417;DHT22;10869;52.238;10.716;2023-07-31T09:50:44;16.30;99.90
21417;DHT22;10869;52.238;10.716;2023-07-31T09:53:10;16.20;99.90
21417;DHT22;10869;52.238;10.716;2023-07-31T09:55:37;16.20;99.90
21417;DHT22;10869;52.238;10.716;2023-07-31T09:58:19;16.20;99.90
21417;DHT22;10869;52.238;10.716;2023-07-31T10:00:45;16.20;99.90
21417;DHT22;10869;52.238;10.716;2023-07-31T10:03:12;16.30;99.90
21417;DHT22;10869;52.238;10.716;2023-07-31T10:05:45;16.30;99.90
21417;DHT22;10869;52.238;10.716;2023-07-31T10:08:14;16.30;99.90
21417;DHT22;10869;52.238;10.716;2023-07-31T10:10:45;16.30;99.90
21417;DHT22;10869;52.238;10.716;2023-07-31T10:13:14;16.30;99.90
21417;DHT22;10869;52.238;10.716;2023-07-31T10:15:40;16.30;99.90
21417;DHT22;10869;52.238;10.716;2023-07-31T10:18:12;16.20;99.90
21417;DHT22;10869;52.238;10.716;2023-07-31T10:20:38;16.20;99.90
21417;DHT22;10869;52.238;10.716;2023-07-31T10:23:04;16.30;99.90
21417;DHT22;10869;52.238;10.716;2023-07-31T10:25:49;16.40;99.90
21417;DHT22;10869;52.238;10.716;2023-07-31T10:28:22;16.50;99.90
21417;DHT22;10869;52.238;10.716;2023-07-31T10:30:50;16.60;99.90
21417;DHT22;10869;52.238;10.716;2023-07-31T10:33:19;16.80;99.90
21417;DHT22;10869;52.238;10.716;2023-07-31T10:35:47;16.80;99.90
21417;DHT22;10869;52.238;10.716;2023-07-31T10:38:13;17.00;99.90
21417;DHT22;10869;52.238;10.716;2023-07-31T10:40:40;17.20;99.90
21417;DHT22;10869;52.238;10.716;2023-07-31T10:43:06;17.30;99.90
21417;DHT22;10869;52.238;10.716;2023-07-31T10:45:34;17.40;99.90
21417;DHT22;10869;52.238;10.716;2023-07-31T10:48:05;17.70;99.90
21417;DHT22;10869;52.238;10.716;2023-07-31T10:50:38;18.00;99.90
21417;DHT22;10869;52.238;10.716;2023-07-31T10:53:04;18.10;99.90
21417;DHT22;10869;52.238;10.716;2023-07-31T10:55:39;18.20;99.90
21417;DHT22;10869;52.238;10.716;2023-07-31T10:58:10;18.20;99.90
21417;DHT22;10869;52.238;10.716;2023-07-31T11:00:38;18.10;99.90
21417;DHT22;10869;52.238;10.716;2023-07-31T11:03:06;18.00;99.90
21417;DHT22;10869;52.238;10.716;2023-07-31T11:06:03;17.90;99.90
21417;DHT22;10869;52.238;10.716;2023-07-31T11:08:33;17.90;99.90
21417;DHT22;10869;52.238;10.716;2023-07-31T11:13:53;17.70;99.90
21417;DHT22;10869;52.238;10.716;2023-07-31T11:16:24;17.70;99.90
21417;DHT22;10869;52.238;10.716;2023-07-31T11:18:51;17.70;99.90
21417;DHT22;10869;52.238;10.716;2023-07-31T11:21:23;17.60;99.90
21417;DHT22;10869;52.238;10.716;2023-07-31T11:23:56;17.70;99.90
21417;DHT22;10869;52.238;10.716;2023-07-31T11:29:27;18.00;99.90
21417;DHT22;10869;52.238;10.716;2023-07-31T11:31:54;18.20;99.90
21417;DHT22;10869;52.238;10.716;2023-07-31T11:34:19;18.50;99.90
21417;DHT22;10869;52.238;10.716;2023-07-31T11:36:53;19.10;99.90
21417;DHT22;10869;52.238;10.716;2023-07-31T11:39:20;19.30;99.90
21417;DHT22;10869;52.238;10.716;2023-07-31T11:41:45;19.60;99.90
21417;DHT22;10869;52.238;10.716;2023-07-31T11:44:15;19.70;99.90
21417;DHT22;10869;52.238;10.716;2023-07-31T11:46:44;19.80;99.90
21417;DHT22;10869;52.238;10.716;2023-07-31T11:49:10;19.80;99.90
21417;DHT22;10869;52.238;10.716;2023-07-31T11:51:36;19.70;99.90
21417;DHT22;10869;52.238;10.716;2023-07-31T11:54:02;19.60;99.90
21417;DHT22;10869;52.238;10.716;2023-07-31T11:56:29;19.60;99.90
21417;DHT22;10869;52.238;10.716;2023-07-31T11:58:59;19.60;99.90
21417;DHT22;10869;52.238;10.716;2023-07-31T12:01:26;19.60;99.90
21417;DHT22;10869;52.238;10.716;2023-07-31T12:03:53;19.40;99.90
21417;DHT22;10869;52.238;10.716;2023-07-31T12:06:20;19.20;99.90
21417;DHT22;10869;52.238;10.716;2023-07-31T12:09:14;19.10;99.90
21417;DHT22;10869;52.238;10.716;2023-07-31T12:11:47;19.10;99.90
21417;DHT22;10869;52.238;10.716;2023-07-31T12:14:28;19.00;99.90
21417;DHT22;10869;52.238;10.716;2023-07-31T12:17:03;18.90;99.90
21417;DHT22;10869;52.238;10.716;2023-07-31T12:19:29;19.00;99.90
21417;DHT22;10869;52.238;10.716;2023-07-31T12:22:12;19.00;99.90
21417;DHT22;10869;52.238;10.716;2023-07-31T12:24:39;19.00;99.90
21417;DHT22;10869;52.238;10.716;2023-07-31T12:27:15;19.00;99.90
21417;DHT22;10869;52.238;10.716;2023-07-31T12:29:42;19.00;99.90
21417;DHT22;10869;52.238;10.716;2023-07-31T12:32:23;19.00;99.90
21417;DHT22;10869;52.238;10.716;2023-07-31T12:34:50;18.90;99.90
21417;DHT22;10869;52.238;10.716;2023-07-31T12:37:17;18.90;99.90
21417;DHT22;10869;52.238;10.716;2023-07-31T12:43:06;18.90;99.90
21417;DHT22;10869;52.238;10.716;2023-07-31T12:48:54;18.90;99.90
21417;DHT22;10869;52.238;10.716;2023-07-31T12:51:20;18.90;99.90
21417;DHT22;10869;52.238;10.716;2023-07-31T12:53:46;19.00;99.90
21417;DHT22;10869;52.238;10.716;2023-07-31T12:56:12;19.10;99.90
21417;DHT22;10869;52.238;10.716;2023-07-31T12:58:37;19.20;99.90
21417;DHT22;10869;52.238;10.716;2023-07-31T13:01:03;19.20;99.90
21417;DHT22;10869;52.238;10.716;2023-07-31T13:03:29;19.30;99.90
21417;DHT22;10869;52.238;10.716;2023-07-31T13:05:55;19.40;99.90
21417;DHT22;10869;52.238;10.716;2023-07-31T13:08:20;19.40;99.90
21417;DHT22;10869;52.238;10.716;2023-07-31T13:10:46;19.40;99.90
21417;DHT22;10869;52.238;10.716;2023-07-31T13:13:12;19.40;99.90
21417;DHT22;10869;52.238;10.716;2023-07-31T13:15:38;19.40;99.90
21417;DHT22;10869;52.238;10.716;2023-07-31T13:18:04;19.40;99.90
21417;DHT22;10869;52.238;10.716;2023-07-31T13:20:29;19.30;99.90
21417;DHT22;10869;52.238;10.716;2023-07-31T13:22:55;19.30;99.90
21417;DHT22;10869;52.238;10.716;2023-07-31T13:25:21;19.30;99.90
21417;DHT22;10869;52.238;10.716;2023-07-31T13:27:46;19.10;99.90
21417;DHT22;10869;52.238;10.716;2023-07-31T13:30:12;19.10;99.90
21417;DHT22;10869;52.238;10.716;2023-07-31T13:32:38;19.00;99.90
21417;DHT22;10869;52.238;10.716;2023-07-31T13:35:07;19.00;99.90
21417;DHT22;10869;52.238;10.716;2023-07-31T13:37:34;19.00;99.90
21417;DHT22;10869;52.238;10.716;2023-07-31T13:40:00;18.90;99.90
21417;DHT22;10869;52.238;10.716;2023-07-31T13:42:26;18.90;99.90
21417;DHT22;10869;52.238;10.716;2023-07-31T13:44:54;18.90;99.90
21417;DHT22;10869;52.238;10.716;2023-07-31T13:47:21;18.90;99.90
21417;DHT22;10869;52.238;10.716;2023-07-31T13:49:47;18.90;99.90
21417;DHT22;10869;52.238;10.716;2023-07-31T13:52:13;18.80;99.90
21417;DHT22;10869;52.238;10.716;2023-07-31T13:54:38;18.80;99.90
21417;DHT22;10869;52.238;10.716;2023-07-31T13:57:04;18.70;99.90
21417;DHT22;10869;52.238;10.716;2023-07-31T13:59:30;18.60;99.90
21417;DHT22;10869;52.238;10.716;2023-07-31T14:01:59;18.60;99.90
21417;DHT22;10869;52.238;10.716;2023-07-31T14:04:25;18.60;99.90
21417;DHT22;10869;52.238;10.716;2023-07-31T14:06:51;18.60;99.90
21417;DHT22;10869;52.238;10.716;2023-07-31T14:09:16;18.60;99.90
21417;DHT22;10869;52.238;10.716;2023-07-31T14:11:43;18.50;99.90
21417;DHT22;10869;52.238;10.716;2023-07-31T14:14:12;18.50;99.90
21417;DHT22;10869;52.238;10.716;2023-07-31T14:16:38;18.50;99.90
21417;DHT22;10869;52.238;10.716;2023-07-31T14:19:03;18.50;99.90
21417;DHT22;10869;52.238;10.716;2023-07-31T14:21:29;18.50;99.90
21417;DHT22;10869;52.238;10.716;2023-07-31T14:23:55;18.50;99.90
21417;DHT22;10869;52.238;10.716;2023-07-31T14:26:20;18.50;99.90
21417;DHT22;10869;52.238;10.716;2023-07-31T14:28:46;18.40;99.90
21417;DHT22;10869;52.238;10.716;2023-07-31T14:31:12;18.50;99.90
21417;DHT22;10869;52.238;10.716;2023-07-31T14:33:38;18.50;99.90
21417;DHT22;10869;52.238;10.716;2023-07-31T14:36:04;18.40;99.90
21417;DHT22;10869;52.238;10.716;2023-07-31T14:38:29;18.30;99.90
21417;DHT22;10869;52.238;10.716;2023-07-31T14:40:56;18.20;99.90
21417;DHT22;10869;52.238;10.716;2023-07-31T14:43:21;18.10;99.90
21417;DHT22;10869;52.238;10.716;2023-07-31T14:45:47;18.10;99.90
21417;DHT22;10869;52.238;10.716;2023-07-31T14:48:13;18.40;99.90
21417;DHT22;10869;52.238;10.716;2023-07-31T14:50:39;18.70;99.90
21417;DHT22;10869;52.238;10.716;2023-07-31T14:53:04;18.80;99.90
21417;DHT22;10869;52.238;10.716;2023-07-31T14:55:30;19.00;99.90
21417;DHT22;10869;52.238;10.716;2023-07-31T14:57:56;19.20;99.90
21417;DHT22;10869;52.238;10.716;2023-07-31T15:00:21;19.20;99.90
21417;DHT22;10869;52.238;10.716;2023-07-31T15:02:48;19.10;99.90
21417;DHT22;10869;52.238;10.716;2023-07-31T15:05:15;19.10;99.90
21417;DHT22;10869;52.238;10.716;2023-07-31T15:07:41;19.10;99.90
21417;DHT22;10869;52.238;10.716;2023-07-31T15:10:07;19.20;99.90
21417;DHT22;10869;52.238;10.716;2023-07-31T15:12:33;19.30;99.90
21417;DHT22;10869;52.238;10.716;2023-07-31T15:14:59;19.40;99.90
21417;DHT22;10869;52.238;10.716;2023-07-31T15:17:25;19.30;99.90
21417;DHT22;10869;52.238;10.716;2023-07-31T15:19:51;19.20;99.90
21417;DHT22;10869;52.238;10.716;2023-07-31T15:22:16;19.10;99.90
21417;DHT22;10869;52.238;10.716;2023-07-31T15:24:42;19.00;99.90
21417;DHT22;10869;52.238;10.716;2023-07-31T15:27:08;19.00;99.90
21417;DHT22;10869;52.238;10.716;2023-07-31T15:29:34;19.00;99.90
21417;DHT22;10869;52.238;10.716;2023-07-31T15:32:04;19.10;99.90
21417;DHT22;10869;52.238;10.716;2023-07-31T15:34:30;19.20;99.90
21417;DHT22;10869;52.238;10.716;2023-07-31T15:36:59;19.20;99.90
21417;DHT22;10869;52.238;10.716;2023-07-31T15:39:30;19.10;99.90
21417;DHT22;10869;52.238;10.716;2023-07-31T15:41:56;19.20;99.90
21417;DHT22;10869;52.238;10.716;2023-07-31T15:44:28;19.20;99.90
21417;DHT22;10869;52.238;10.716;2023-07-31T15:46:58;19.10;99.90
21417;DHT22;10869;52.238;10.716;2023-07-31T15:49:30;19.00;99.90
21417;DHT22;10869;52.238;10.716;2023-07-31T16:02:25;18.80;99.90
21417;DHT22;10869;52.238;10.716;2023-07-31T16:04:54;18.80;99.90
21417;DHT22;10869;52.238;10.716;2023-07-31T16:07:20;18.70;99.90
21417;DHT22;10869;52.238;10.716;2023-07-31T16:13:10;18.90;99.90
21417;DHT22;10869;52.238;10.716;2023-07-31T16:15:36;19.00;99.90
21417;DHT22;10869;52.238;10.716;2023-07-31T16:18:02;19.00;99.90
21417;DHT22;10869;52.238;10.716;2023-07-31T16:20:28;19.10;99.90
21417;DHT22;10869;52.238;10.716;2023-07-31T16:22:57;19.20;99.90
21417;DHT22;10869;52.238;10.716;2023-07-31T16:25:24;19.20;99.90
21417;DHT22;10869;52.238;10.716;2023-07-31T16:27:52;19.20;99.90
21417;DHT22;10869;52.238;10.716;2023-07-31T16:30:21;19.20;99.90
21417;DHT22;10869;52.238;10.716;2023-07-31T16:33:10;19.10;99.90
21417;DHT22;10869;52.238;10.716;2023-07-31T16:35:38;19.10;99.90
21417;DHT22;10869;52.238;10.716;2023-07-31T16:41:30;19.00;99.90
21417;DHT22;10869;52.238;10.716;2023-07-31T16:47:18;18.90;99.90
21417;DHT22;10869;52.238;10.716;2023-07-31T16:53:08;18.90;99.90
21417;DHT22;10869;52.238;10.716;2023-07-31T16:55:35;18.80;99.90
21417;DHT22;10869;52.238;10.716;2023-07-31T16:58:03;18.70;99.90
21417;DHT22;10869;52.238;10.716;2023-07-31T17:00:29;18.70;99.90
21417;DHT22;10869;52.238;10.716;2023-07-31T17:02:55;18.70;99.90
21417;DHT22;10869;52.238;10.716;2023-07-31T17:05:21;18.70;99.90
21417;DHT22;10869;52.238;10.716;2023-07-31T17:07:47;18.70;99.90
21417;DHT22;10869;52.238;10.716;2023-07-31T17:10:13;18.70;99.90
21417;DHT22;10869;52.238;10.716;2023-07-31T17:12:39;18.70;99.90
21417;DHT22;10869;52.238;10.716;2023-07-31T17:15:05;18.70;99.90
21417;DHT22;10869;52.238;10.716;2023-07-31T17:20:53;18.70;99.90
21417;DHT22;10869;52.238;10.716;2023-07-31T17:23:22;18.60;99.90
21417;DHT22;10869;52.238;10.716;2023-07-31T17:25:48;18.60;99.90
21417;DHT22;10869;52.238;10.716;2023-07-31T17:28:14;18.50;99.90
21417;DHT22;10869;52.238;10.716;2023-07-31T17:30:40;18.50;99.90
21417;DHT22;10869;52.238;10.716;2023-07-31T17:36:28;18.40;99.90
21417;DHT22;10869;52.238;10.716;2023-07-31T17:38:54;18.40;99.90
21417;DHT22;10869;52.238;10.716;2023-07-31T17:44:42;18.30;99.90
21417;DHT22;10869;52.238;10.716;2023-07-31T17:47:10;18.30;99.90
21417;DHT22;10869;52.238;10.716;2023-07-31T18:01:35;18.10;99.90
21417;DHT22;10869;52.238;10.716;2023-07-31T18:07:24;18.10;99.90
21417;DHT22;10869;52.238;10.716;2023-07-31T18:13:13;18.00;99.90
21417;DHT22;10869;52.238;10.716;2023-07-31T18:15:48;18.00;99.90
21417;DHT22;10869;52.238;10.716;2023-07-31T18:18:15;18.00;99.90
21417;DHT22;10869;52.238;10.716;2023-07-31T18:20:41;18.00;99.90
21417;DHT22;10869;52.238;10.716;2023-07-31T18:23:06;18.00;99.90
21417;DHT22;10869;52.238;10.716;2023-07-31T18:25:32;18.00;99.90
21417;DHT22;10869;52.238;10.716;2023-07-31T18:27:58;18.00;99.90
21417;DHT22;10869;52.238;10.716;2023-07-31T18:30:24;18.00;99.90
21417;DHT22;10869;52.238;10.716;2023-07-31T18:32:49;17.90;99.90
21417;DHT22;10869;52.238;10.716;2023-07-31T18:35:15;18.00;99.90
21417;DHT22;10869;52.238;10.716;2023-07-31T18:37:44;17.90;99.90
21417;DHT22;10869;52.238;10.716;2023-07-31T18:40:35;17.90;99.90
21417;DHT22;10869;52.238;10.716;2023-07-31T18:46:23;17.90;99.90
21417;DHT22;10869;52.238;10.716;2023-07-31T18:52:11;17.90;99.90
21417;DHT22;10869;52.238;10.716;2023-07-31T18:57:32;17.90;99.90
21417;DHT22;10869;52.238;10.716;2023-07-31T18:59:58;17.80;99.90
21417;DHT22;10869;52.238;10.716;2023-07-31T19:02:27;17.80;99.90
21417;DHT22;10869;52.238;10.716;2023-07-31T19:05:08;17.80;99.90
21417;DHT22;10869;52.238;10.716;2023-07-31T19:13:35;17.80;99.90
21417;DHT22;10869;52.238;10.716;2023-07-31T19:16:04;17.80;99.90
21417;DHT22;10869;52.238;10.716;2023-07-31T19:18:36;17.80;99.90
21417;DHT22;10869;52.238;10.716;2023-07-31T19:21:05;17.70;99.90
21417;DHT22;10869;52.238;10.716;2023-07-31T19:26:55;17.80;99.90
21417;DHT22;10869;52.238;10.716;2023-07-31T19:29:40;17.80;99.90
21417;DHT22;10869;52.238;10.716;2023-07-31T19:32:06;17.80;99.90
21417;DHT22;10869;52.238;10.716;2023-07-31T19:34:36;17.80;99.90
21417;DHT22;10869;52.238;10.716;2023-07-31T19:37:05;17.80;99.90
21417;DHT22;10869;52.238;10.716;2023-07-31T19:49:55;17.90;99.90
21417;DHT22;10869;52.238;10.716;2023-07-31T19:52:26;17.90;99.90
21417;DHT22;10869;52.238;10.716;2023-07-31T19:54:54;17.90;99.90
21417;DHT22;10869;52.238;10.716;2023-07-31T19:57:20;17.90;99.90
21417;DHT22;10869;52.238;10.716;2023-07-31T19:59:46;17.90;99.90
21417;DHT22;10869;52.238;10.716;2023-07-31T20:02:12;17.90;99.90
21417;DHT22;10869;52.238;10.716;2023-07-31T20:07:59;17.80;99.90
21417;DHT22;10869;52.238;10.716;2023-07-31T20:13:47;17.70;99.90
21417;DHT22;10869;52.238;10.716;2023-07-31T20:19:35;17.50;99.90
21417;DHT22;10869;52.238;10.716;2023-07-31T20:22:02;17.50;99.90
21417;DHT22;10869;52.238;10.716;2023-07-31T20:24:28;17.40;99.90
21417;DHT22;10869;52.238;10.716;2023-07-31T20:29:50;17.30;99.90
21417;DHT22;10869;52.238;10.716;2023-07-31T20:32:15;17.30;99.90
21417;DHT22;10869;52.238;10.716;2023-07-31T20:34:41;17.20;99.90
21417;DHT22;10869;52.238;10.716;2023-07-31T20:40:12;17.20;99.90
21417;DHT22;10869;52.238;10.716;2023-07-31T20:42:38;17.20;99.90
21417;DHT22;10869;52.238;10.716;2023-07-31T20:45:04;17.10;99.90
21417;DHT22;10869;52.238;10.716;2023-07-31T20:47:30;17.10;99.90
21417;DHT22;10869;52.238;10.716;2023-07-31T20:49:56;17.10;99.90
21417;DHT22;10869;52.238;10.716;2023-07-31T20:52:22;17.10;99.90
21417;DHT22;10869;52.238;10.716;2023-07-31T20:54:47;17.10;99.90
21417;DHT22;10869;52.238;10.716;2023-07-31T20:57:13;17.10;99.90
21417;DHT22;10869;52.238;10.716;2023-07-31T20:59:39;17.10;99.90
21417;DHT22;10869;52.238;10.716;2023-07-31T21:02:06;17.00;99.90
21417;DHT22;10869;52.238;10.716;2023-07-31T21:04:31;17.00;99.90
21417;DHT22;10869;52.238;10.716;2023-07-31T21:06:57;17.00;99.90
21417;DHT22;10869;52.238;10.716;2023-07-31T21:09:23;17.00;99.90
21417;DHT22;10869;52.238;10.716;2023-07-31T21:11:48;17.00;99.90
21417;DHT22;10869;52.238;10.716;2023-07-31T21:14:14;17.00;99.90
21417;DHT22;10869;52.238;10.716;2023-07-31T21:16:40;16.90;99.90
21417;DHT22;10869;52.238;10.716;2023-07-31T21:19:05;16.90;99.90
21417;DHT22;10869;52.238;10.716;2023-07-31T21:21:31;16.90;99.90
21417;DHT22;10869;52.238;10.716;2023-07-31T21:23:58;16.80;99.90
21417;DHT22;10869;52.238;10.716;2023-07-31T21:26:24;16.80;99.90
21417;DHT22;10869;52.238;10.716;2023-07-31T21:28:49;16.80;99.90
21417;DHT22;10869;52.238;10.716;2023-07-31T21:31:15;16.80;99.90